Time;durP1;ratioP1;P1;durP2;ratioP2;P2;SDS_P1;SDS_P2;PMS_P1;PMS_P2;Temp;Humidity;BMP_temperature;BMP_pressure;BME280_temperature;BME280_humidity;BME280_pressure;Samples;Min_cycle;Max_cycle;Signal;HPM_P1;HPM_P2
2023/03/11 00:01:49;;;;;;;0.88;0.63;;;2.40;99.90;;;1.39;97.37;96138.13;5010058;28;20044;-39
2023/03/11 00:04:15;;;;;;;1.25;0.70;;;2.30;99.90;;;1.28;98.46;96136.59;5006807;28;20592;-40
2023/03/11 00:06:40;;;;;;;1.10;0.70;;;2.20;99.90;;;1.21;97.45;96141.97;5011260;28;20109;-39
2023/03/11 00:09:06;;;;;;;3.05;0.80;;;2.10;99.90;;;1.12;100.00;96148.19;5018604;28;20065;-39
2023/03/11 00:11:32;;;;;;;0.95;0.57;;;2.00;99.90;;;1.04;100.00;96157.84;5017199;28;20106;-39
2023/03/11 00:13:58;;;;;;;1.08;0.70;;;2.00;99.90;;;0.98;100.00;96165.78;5015698;28;20059;-39
2023/03/11 00:16:24;;;;;;;2.22;0.70;;;1.90;99.90;;;0.94;100.00;96154.59;5014095;28;20083;-39
2023/03/11 00:18:51;;;;;;;0.75;0.63;;;1.90;99.90;;;1.04;100.00;96150.06;5011988;28;20457;-39
2023/03/11 00:21:19;;;;;;;0.98;0.60;;;2.00;99.90;;;1.02;100.00;96152.69;5017270;28;20033;-37
2023/03/11 00:23:45;;;;;;;2.45;0.60;;;2.00;99.90;;;0.98;100.00;96160.59;5004330;28;20044;-37
2023/03/11 00:26:11;;;;;;;1.92;0.80;;;1.90;99.90;;;0.91;100.00;96155.50;5006480;28;20108;-37
2023/03/11 00:28:37;;;;;;;1.80;0.80;;;1.90;99.90;;;1.01;100.00;96181.31;5006397;28;20535;-37
2023/03/11 00:31:03;;;;;;;2.70;0.80;;;1.90;99.90;;;1.03;100.00;96164.81;5006425;28;20054;-37
2023/03/11 00:33:29;;;;;;;0.65;0.52;;;1.90;99.90;;;0.81;100.00;96130.63;5005055;28;20045;-37
2023/03/11 00:35:54;;;;;;;1.48;1.00;;;2.00;99.90;;;1.04;100.00;96165.66;5002438;28;20033;-37
2023/03/11 00:38:20;;;;;;;2.92;1.15;;;2.00;99.90;;;1.03;100.00;96156.16;5008335;28;20517;-40
2023/03/11 00:40:48;;;;;;;2.00;0.90;;;1.90;99.90;;;1.05;100.00;96170.81;5007430;28;20116;-40
2023/03/11 00:43:15;;;;;;;1.52;0.90;;;2.00;99.90;;;1.08;100.00;96173.38;5011690;28;20100;-37
2023/03/11 00:45:41;;;;;;;1.10;0.80;;;2.00;99.90;;;1.06;100.00;96175.13;5020494;28;20030;-37
2023/03/11 00:48:07;;;;;;;3.20;0.82;;;2.00;99.90;;;1.02;100.00;96177.81;5013124;28;20029;-37
2023/03/11 00:50:35;;;;;;;1.42;0.88;;;2.00;99.90;;;1.02;100.00;96183.00;5005924;28;20025;-38
2023/03/11 00:53:03;;;;;;;6.68;1.10;;;1.90;99.90;;;1.06;100.00;96184.66;5003919;28;20044;-37
2023/03/11 00:55:32;;;;;;;1.55;1.00;;;2.00;99.90;;;1.09;100.00;96200.19;5003507;28;20032;-38
2023/03/11 00:58:02;;;;;;;1.88;1.00;;;2.00;99.90;;;1.09;100.00;96194.97;5004211;28;20072;-38
2023/03/11 01:00:29;;;;;;;1.63;0.90;;;2.00;99.90;;;1.03;100.00;96195.09;5016448;28;20029;-38
2023/03/11 01:02:55;;;;;;;2.35;1.08;;;2.00;99.90;;;0.94;100.00;96196.13;5002517;28;20037;-38
2023/03/11 01:05:27;;;;;;;1.50;1.10;;;1.90;99.90;;;0.98;100.00;96197.78;5007535;28;20115;-38
2023/03/11 01:07:53;;;;;;;2.28;1.38;;;1.90;99.90;;;0.95;100.00;96211.69;5004018;28;20037;-38
2023/03/11 01:10:19;;;;;;;0.98;0.88;;;1.90;99.90;;;0.99;100.00;96203.81;5007157;28;20117;-38
2023/03/11 01:12:44;;;;;;;1.55;0.90;;;1.90;99.90;;;1.01;100.00;96183.91;5002209;28;20069;-38
2023/03/11 01:15:36;;;;;;;1.55;1.30;;;2.00;99.90;;;1.02;100.00;96204.63;5003089;28;20117;-38
2023/03/11 01:18:04;;;;;;;1.23;1.05;;;2.00;99.90;;;1.01;100.00;96191.69;5016109;28;20051;-38
2023/03/11 01:20:29;;;;;;;4.00;1.30;;;1.90;99.90;;;0.96;100.00;96189.16;5007317;28;20306;-38
2023/03/11 01:22:56;;;;;;;1.55;1.20;;;1.90;99.90;;;0.82;100.00;96202.38;5019845;28;20675;-38
2023/03/11 01:25:23;;;;;;;3.20;1.27;;;1.80;99.90;;;0.75;100.00;96209.44;5003904;28;20071;-38
2023/03/11 01:27:49;;;;;;;2.55;1.10;;;1.70;99.90;;;0.66;100.00;96212.16;5003371;28;20044;-39
2023/03/11 01:30:19;;;;;;;1.58;0.70;;;1.60;99.90;;;0.63;100.00;96211.38;5001013;28;20029;-38
2023/03/11 01:32:45;;;;;;;1.75;1.27;;;1.60;99.90;;;0.63;100.00;96216.56;5003188;28;20041;-38
2023/03/11 01:35:14;;;;;;;3.10;1.20;;;1.60;99.90;;;0.66;100.00;96216.50;5004337;28;20060;-40
2023/03/11 01:37:40;;;;;;;1.63;0.93;;;1.60;99.90;;;0.60;100.00;96211.44;5002936;28;20171;-40
2023/03/11 01:40:10;;;;;;;2.80;1.02;;;1.60;99.90;;;0.59;100.00;96223.53;5001515;28;20340;-40
2023/03/11 01:42:36;;;;;;;2.35;1.25;;;1.60;99.90;;;0.54;100.00;96222.78;5017778;22;20054;-39
2023/03/11 01:45:02;;;;;;;4.22;1.20;;;1.50;99.90;;;0.28;100.00;96205.88;5012531;28;20056;-38
2023/03/11 01:47:45;;;;;;;3.35;1.10;;;1.50;99.90;;;0.48;100.00;96213.34;5015372;28;20521;-38
2023/03/11 01:50:12;;;;;;;2.10;1.00;;;1.50;99.90;;;0.43;100.00;96202.19;5011917;28;20371;-38
2023/03/11 01:52:39;;;;;;;3.05;1.00;;;1.40;99.90;;;0.37;100.00;96208.31;5008481;28;20033;-38
2023/03/11 01:55:06;;;;;;;3.03;1.20;;;1.40;99.90;;;0.37;100.00;96195.34;5010359;28;20061;-38
2023/03/11 01:57:31;;;;;;;2.25;1.00;;;1.40;99.90;;;0.32;100.00;96214.47;5012141;28;20152;-37
2023/03/11 02:00:05;;;;;;;2.65;1.00;;;1.30;99.90;;;0.25;100.00;96211.13;5007663;28;20041;-38
2023/03/11 02:02:41;;;;;;;2.90;1.00;;;1.30;99.90;;;0.16;100.00;96208.66;5010323;28;20091;-38
2023/03/11 02:05:08;;;;;;;1.08;0.98;;;1.10;99.90;;;0.03;100.00;96179.47;5011516;28;20037;-38
2023/03/11 02:07:34;;;;;;;4.13;1.20;;;1.10;99.90;;;0.09;100.00;96201.84;5015522;28;20080;-38
2023/03/11 02:10:01;;;;;;;1.65;1.27;;;1.10;99.90;;;0.02;100.00;96206.28;5011704;28;20481;-38
2023/03/11 02:12:30;;;;;;;1.65;1.10;;;1.00;99.90;;;-0.05;100.00;96208.09;5011475;28;20144;-38
2023/03/11 02:14:56;;;;;;;4.57;1.52;;;1.00;99.90;;;-0.05;100.00;96222.81;5007688;28;20104;-38
2023/03/11 02:17:22;;;;;;;2.47;1.02;;;1.00;99.90;;;-0.07;100.00;96230.59;5011936;28;20485;-38
2023/03/11 02:20:29;;;;;;;4.28;1.20;;;1.00;99.90;;;0.02;100.00;96221.84;5014566;28;20029;-38
2023/03/11 02:22:56;;;;;;;2.17;0.95;;;1.00;99.90;;;0.07;100.00;96225.22;5021995;28;20033;-38
2023/03/11 02:26:11;;;;;;;1.98;1.00;;;1.10;99.90;;;0.10;100.00;96224.31;5009401;28;20033;-38
2023/03/11 02:28:37;;;;;;;2.63;1.02;;;1.10;99.90;;;0.08;100.00;96229.50;5004641;28;20033;-38
2023/03/11 02:31:03;;;;;;;1.75;1.00;;;1.00;99.90;;;0.01;100.00;96224.44;5012862;28;23335;-38
2023/03/11 02:33:31;;;;;;;1.75;0.93;;;1.10;99.90;;;-0.04;100.00;96214.97;5013178;28;20049;-38
2023/03/11 02:35:57;;;;;;;1.58;0.90;;;1.00;99.90;;;-0.07;100.00;96234.91;5015147;28;21546;-38
2023/03/11 02:38:23;;;;;;;2.47;0.90;;;0.90;99.90;;;-0.23;100.00;96232.53;5017223;28;20029;-38
2023/03/11 02:40:56;;;;;;;1.30;0.70;;;0.90;99.90;;;-0.28;100.00;96242.09;5009923;28;20645;-39
2023/03/11 02:43:40;;;;;;;3.10;1.00;;;0.70;99.90;;;-0.46;100.00;96238.00;5016592;28;20052;-38
2023/03/11 02:46:09;;;;;;;2.72;0.90;;;0.60;99.90;;;-0.59;100.00;96246.81;5017624;28;20079;-38
2023/03/11 02:48:35;;;;;;;1.70;1.00;;;0.40;99.90;;;-0.69;100.00;96245.19;5014887;28;20045;-38
2023/03/11 02:51:02;;;;;;;2.38;0.90;;;0.30;99.90;;;-0.73;100.00;96261.63;5011560;28;20026;-38
2023/03/11 02:53:33;;;;;;;4.30;0.98;;;0.20;99.90;;;-0.91;100.00;96247.16;5015973;28;20029;-38
2023/03/11 02:55:59;;;;;;;5.07;1.15;;;0.10;99.90;;;-0.87;100.00;96259.19;5013642;28;20033;-38
2023/03/11 02:58:25;;;;;;;4.50;1.30;;;0.20;99.90;;;-0.87;100.00;96272.97;5016391;28;20060;-38
2023/03/11 03:00:50;;;;;;;2.60;0.80;;;0.10;99.90;;;-0.94;100.00;96247.19;5006641;28;20053;-38
2023/03/11 03:03:16;;;;;;;2.25;0.88;;;0.00;99.90;;;-0.93;100.00;96267.88;5012388;28;20121;-38
2023/03/11 03:05:42;;;;;;;2.38;0.80;;;0.00;99.90;;;-1.32;100.00;96204.44;5019574;28;20037;-38
2023/03/11 03:08:07;;;;;;;2.08;0.90;;;-0.10;99.90;;;-1.03;100.00;96261.91;5011726;28;20029;-38
2023/03/11 03:10:33;;;;;;;4.68;1.10;;;-0.10;99.90;;;-1.12;100.00;96259.41;5020221;28;20021;-39
2023/03/11 03:12:59;;;;;;;5.63;1.05;;;-0.20;99.90;;;-1.13;100.00;96256.84;5010949;28;20025;-39
2023/03/11 03:15:24;;;;;;;1.65;0.80;;;-0.20;99.90;;;-1.26;100.00;96258.69;5013519;28;20490;-39
2023/03/11 03:17:50;;;;;;;1.15;0.73;;;-0.30;99.90;;;-1.26;100.00;96275.06;5013152;28;20037;-38
2023/03/11 03:20:17;;;;;;;4.47;0.70;;;-0.30;99.90;;;-1.39;100.00;96269.13;5020214;28;20034;-38
2023/03/11 03:22:43;;;;;;;2.03;0.90;;;-0.40;99.90;;;-1.34;100.00;96274.28;5013233;28;20041;-39
2023/03/11 03:25:10;;;;;;;4.45;1.13;;;-0.40;99.90;;;-1.58;100.00;96245.16;5017974;28;20033;-39
2023/03/11 03:27:37;;;;;;;2.58;0.88;;;-0.40;99.90;;;-1.40;100.00;96262.25;5017342;28;20045;-39
2023/03/11 03:30:05;;;;;;;4.22;0.93;;;-0.50;99.90;;;-1.51;100.00;96240.78;5012458;28;20054;-39
2023/03/11 03:32:30;;;;;;;2.35;0.93;;;-0.50;99.90;;;-1.44;100.00;96260.53;5011692;28;20037;-39
2023/03/11 03:34:58;;;;;;;2.58;1.05;;;-0.50;99.90;;;-1.72;100.00;96234.06;5011882;28;20574;-39
2023/03/11 03:37:26;;;;;;;2.95;0.95;;;-0.50;99.90;;;-1.67;100.00;96262.44;5016775;28;20560;-39
2023/03/11 03:39:52;;;;;;;1.98;0.88;;;-0.60;99.90;;;-1.65;100.00;96268.47;5012062;28;20519;-39
2023/03/11 03:42:18;;;;;;;3.72;0.80;;;-0.60;99.90;;;-1.71;100.00;96271.97;5014568;28;20917;-38
2023/03/11 03:44:44;;;;;;;2.70;0.80;;;-0.70;99.90;;;-1.73;100.00;96289.22;5012106;28;20033;-38
2023/03/11 03:47:10;;;;;;;1.08;0.88;;;-0.70;99.90;;;-1.82;100.00;96295.28;5010168;28;20044;-38
2023/03/11 03:49:36;;;;;;;3.88;0.93;;;-0.70;99.90;;;-1.75;100.00;96296.13;5016342;28;20061;-38
2023/03/11 03:52:05;;;;;;;5.80;0.90;;;-0.80;99.90;;;-1.86;100.00;96309.09;5009533;28;20025;-39
2023/03/11 03:54:31;;;;;;;1.58;0.85;;;-0.80;99.90;;;-2.14;100.00;96277.38;5011587;28;20630;-39
2023/03/11 03:56:57;;;;;;;3.22;1.00;;;-0.90;99.90;;;-1.92;100.00;96314.28;5006075;28;20041;-39
2023/03/11 03:59:23;;;;;;;3.47;0.73;;;-0.90;99.90;;;-2.17;100.00;96290.31;5012880;28;20050;-38
2023/03/11 04:01:49;;;;;;;6.90;1.02;;;-0.90;99.90;;;-1.96;100.00;96318.63;5005831;28;20178;-38
2023/03/11 04:04:14;;;;;;;1.52;0.85;;;-0.90;99.90;;;-1.99;100.00;96317.78;5009571;28;20174;-39
2023/03/11 04:06:41;;;;;;;3.90;0.82;;;-1.00;99.90;;;-1.98;100.00;96309.16;5008448;28;20025;-39
2023/03/11 04:09:10;;;;;;;4.28;1.30;;;-1.00;99.90;;;-1.98;100.00;96312.59;5010134;28;20036;-39
2023/03/11 04:11:35;;;;;;;2.53;0.82;;;-0.90;99.90;;;-1.89;100.00;96316.03;5006242;28;20052;-39
2023/03/11 04:14:02;;;;;;;4.82;0.95;;;-0.90;99.90;;;-1.84;100.00;96327.19;5006983;28;20298;-39
2023/03/11 04:16:28;;;;;;;2.92;0.75;;;-0.80;99.90;;;-1.83;100.00;96310.81;5010434;28;20138;-39
2023/03/11 04:18:54;;;;;;;3.78;1.08;;;-0.80;99.90;;;-1.84;100.00;96324.59;5001462;28;21778;-39
2023/03/11 04:21:19;;;;;;;1.08;0.60;;;-0.90;99.90;;;-1.87;100.00;96325.47;5007454;28;20474;-39
2023/03/11 04:23:45;;;;;;;4.95;0.80;;;-0.80;99.90;;;-2.04;100.00;96312.66;5009564;28;20687;-38
2023/03/11 04:26:11;;;;;;;3.08;0.77;;;-0.90;99.90;;;-2.03;100.00;96324.69;5008334;28;20036;-39
2023/03/11 04:28:37;;;;;;;2.75;0.95;;;-1.00;99.90;;;-2.12;100.00;96317.84;5011491;28;20033;-38
2023/03/11 04:31:03;;;;;;;3.97;1.13;;;-1.00;99.90;;;-2.03;100.00;96326.41;5010262;28;20464;-38
2023/03/11 04:33:28;;;;;;;2.70;0.80;;;-1.10;99.90;;;-2.13;100.00;96329.03;5006119;28;20034;-39
2023/03/11 04:35:54;;;;;;;6.78;1.10;;;-1.10;99.90;;;-2.14;100.00;96326.47;5008746;28;20091;-38
2023/03/11 04:38:20;;;;;;;1.75;0.82;;;-1.00;99.90;;;-2.21;100.00;96314.44;5016460;28;20405;-38
2023/03/11 04:40:45;;;;;;;3.10;0.80;;;-1.10;99.90;;;-2.17;100.00;96327.34;5010500;28;20026;-38
2023/03/11 04:43:11;;;;;;;1.48;0.73;;;-1.10;99.90;;;-2.12;100.00;96328.19;5001925;28;20443;-38
2023/03/11 04:45:39;;;;;;;2.17;0.90;;;-1.10;99.90;;;-2.21;100.00;96312.72;5007204;28;20068;-38
2023/03/11 04:48:04;;;;;;;5.88;1.05;;;-1.10;99.90;;;-2.21;100.00;96310.13;5013239;28;20561;-38
2023/03/11 04:50:30;;;;;;;3.40;0.80;;;-1.10;99.90;;;-2.18;100.00;96315.28;5013898;28;20047;-38
2023/03/11 04:52:56;;;;;;;2.38;1.02;;;-1.20;99.90;;;-2.29;100.00;96311.06;5011855;28;20033;-38
2023/03/11 04:55:22;;;;;;;3.78;1.20;;;-1.30;99.90;;;-2.31;100.00;96313.63;5012987;28;20132;-39
2023/03/11 04:57:48;;;;;;;3.15;0.95;;;-1.20;99.90;;;-2.37;100.00;96322.25;5009865;28;20444;-39
2023/03/11 05:00:14;;;;;;;3.67;1.13;;;-1.30;99.90;;;-2.43;100.00;96316.25;5013818;28;20739;-39
2023/03/11 05:02:41;;;;;;;2.72;0.95;;;-1.30;99.90;;;-2.37;100.00;96330.00;5008803;28;20175;-39
2023/03/11 05:05:09;;;;;;;3.50;1.00;;;-1.30;99.90;;;-2.31;100.00;96335.16;5012514;28;20084;-38
2023/03/11 05:07:36;;;;;;;3.38;0.88;;;-1.30;99.90;;;-2.26;100.00;96334.25;5014030;28;20026;-39
2023/03/11 05:10:03;;;;;;;3.97;1.10;;;-1.30;99.90;;;-2.31;100.00;96340.31;5010233;28;20060;-38
2023/03/11 05:12:29;;;;;;;4.82;0.90;;;-1.30;99.90;;;-2.22;100.00;96348.91;5013215;28;20021;-39
2023/03/11 05:14:54;;;;;;;3.83;1.00;;;-1.20;99.90;;;-2.09;100.00;96334.22;5012150;28;20494;-38
2023/03/11 05:17:20;;;;;;;2.45;1.00;;;-1.10;99.90;;;-2.16;100.00;96320.44;5013847;28;20033;-39
2023/03/11 05:19:46;;;;;;;3.92;1.08;;;-1.00;99.90;;;-2.12;100.00;96335.06;5008875;28;20410;-38
2023/03/11 05:22:12;;;;;;;2.92;1.10;;;-1.00;99.90;;;-2.13;100.00;96341.97;5003139;28;20033;-38
2023/03/11 05:24:37;;;;;;;6.38;1.08;;;-1.00;99.90;;;-2.13;100.00;96341.97;5001816;28;20046;-38
2023/03/11 05:27:04;;;;;;;4.20;1.23;;;-1.00;99.90;;;-2.10;100.00;96346.25;5010546;28;20191;-39
2023/03/11 05:29:30;;;;;;;1.52;0.95;;;-1.00;99.90;;;-2.20;100.00;96334.25;5006438;28;20547;-38
2023/03/11 05:31:56;;;;;;;1.13;0.70;;;-1.10;99.90;;;-2.23;100.00;96349.75;5004724;28;20052;-39
2023/03/11 05:34:22;;;;;;;6.35;1.10;;;-1.10;99.90;;;-2.21;100.00;96348.88;5005222;28;20057;-38
2023/03/11 05:36:48;;;;;;;4.03;1.00;;;-1.10;99.90;;;-2.12;100.00;96347.97;5004977;28;20048;-39
2023/03/11 05:39:14;;;;;;;5.88;1.08;;;-1.00;99.90;;;-2.01;100.00;96351.41;5003303;28;20608;-38
2023/03/11 05:41:40;;;;;;;3.38;0.90;;;-1.00;99.90;;;-2.12;100.00;96335.94;5005459;28;20029;-38
2023/03/11 05:44:06;;;;;;;2.90;1.02;;;-1.00;99.90;;;-2.08;100.00;96362.63;5007663;28;20490;-39
2023/03/11 05:46:31;;;;;;;3.53;1.20;;;-1.00;99.90;;;-2.14;100.00;96362.63;5011360;28;20434;-38
2023/03/11 05:48:59;;;;;;;1.85;1.00;;;-1.00;99.90;;;-2.22;100.00;96352.34;5004365;28;20103;-39
2023/03/11 05:51:25;;;;;;;1.92;0.70;;;-1.10;99.90;;;-2.23;100.00;96348.00;5007621;28;20283;-38
2023/03/11 05:53:51;;;;;;;4.85;1.02;;;-1.10;99.90;;;-2.22;100.00;96352.34;5005083;28;20045;-38
2023/03/11 05:56:19;;;;;;;4.40;0.90;;;-1.20;99.90;;;-2.33;100.00;96344.63;5008326;28;20140;-38
2023/03/11 05:58:46;;;;;;;4.82;0.80;;;-1.20;99.90;;;-2.32;100.00;96350.63;5002734;28;20477;-38
2023/03/11 06:01:15;;;;;;;6.13;1.20;;;-1.30;99.90;;;-2.24;100.00;96361.81;5009305;28;20124;-38
2023/03/11 06:03:41;;;;;;;2.28;0.85;;;-1.20;99.90;;;-2.31;100.00;96360.13;5007876;28;20040;-38
2023/03/11 06:06:10;;;;;;;3.55;0.80;;;-1.30;99.90;;;-2.35;100.00;96369.59;5001872;28;20457;-38
2023/03/11 06:08:36;;;;;;;1.70;0.90;;;-1.30;99.90;;;-2.41;100.00;96368.75;4999715;28;20551;-38
2023/03/11 06:11:08;;;;;;;4.20;0.75;;;-1.30;99.90;;;-2.41;100.00;96373.91;5006698;28;20028;-38
2023/03/11 06:13:35;;;;;;;;;;;-1.30;99.90;;;-2.36;100.00;96374.75;5007463;28;20060;-38
2023/03/11 06:16:01;;;;;;;8.98;1.20;;;-1.30;99.90;;;-2.32;100.00;96376.47;5005556;28;19917;-39
2023/03/11 06:18:27;;;;;;;4.18;0.95;;;-1.30;99.90;;;-2.30;100.00;96374.72;5009067;28;20111;-38
2023/03/11 06:20:56;;;;;;;4.93;1.00;;;-1.30;99.90;;;-2.28;100.00;96375.59;5002610;28;20072;-38
2023/03/11 06:23:23;;;;;;;2.28;0.75;;;-1.20;99.90;;;-2.24;100.00;96379.00;5004725;28;20232;-38
2023/03/11 06:26:00;;;;;;;3.75;1.05;;;-1.20;99.90;;;-2.15;100.00;96374.69;5005968;28;20036;-38
2023/03/11 06:28:27;;;;;;;6.15;0.90;;;-1.10;99.90;;;-1.93;100.00;96377.19;5002922;28;20029;-38
2023/03/11 06:30:55;;;;;;;2.22;0.90;;;-1.00;99.90;;;-1.92;100.00;96376.31;5002279;28;20065;-38
2023/03/11 06:33:22;;;;;;;2.70;1.05;;;-0.90;99.90;;;-1.80;100.00;96378.00;5006802;28;20204;-38
2023/03/11 06:35:58;;;;;;;5.50;0.98;;;-0.70;99.90;;;-1.61;100.00;96386.53;5006139;28;20033;-38
2023/03/11 06:38:24;;;;;;;3.38;1.30;;;-0.60;99.90;;;-1.56;100.00;96377.03;5012262;28;20546;-38
2023/03/11 06:40:50;;;;;;;2.58;0.73;;;-0.40;99.90;;;-1.40;100.00;96389.00;5003432;28;20358;-38
2023/03/11 06:43:16;;;;;;;3.85;0.95;;;-0.30;99.90;;;-1.20;100.00;96400.94;5005943;28;20120;-39
2023/03/11 06:45:42;;;;;;;3.45;1.05;;;-0.20;99.90;;;-1.14;100.00;96411.22;5005767;28;20488;-38
2023/03/11 06:48:07;;;;;;;4.20;0.98;;;-0.10;99.90;;;-1.17;100.00;96409.53;5011701;28;20034;-39
2023/03/11 06:50:33;;;;;;;4.85;1.25;;;-0.10;99.90;;;-1.18;100.00;96425.06;5005814;28;20295;-38
2023/03/11 06:52:59;;;;;;;4.63;1.13;;;-0.10;99.90;;;-1.26;100.00;96414.75;5007788;28;20072;-38
2023/03/11 06:55:24;;;;;;;4.03;1.08;;;-0.20;99.90;;;-1.24;100.00;96431.16;5011217;28;20040;-38
2023/03/11 06:57:50;;;;;;;4.32;1.00;;;-0.20;99.90;;;-1.24;100.00;96427.66;5013341;28;20045;-38
2023/03/11 07:00:16;;;;;;;3.38;1.20;;;-0.20;99.90;;;-1.22;100.00;96431.09;5009422;28;20040;-39
2023/03/11 07:02:42;;;;;;;3.22;0.70;;;-0.20;99.90;;;-1.18;100.00;96438.00;5010783;28;20033;-39
2023/03/11 07:05:08;;;;;;;4.78;0.90;;;-0.20;99.90;;;-1.09;100.00;96437.09;5009577;28;20615;-38
2023/03/11 07:07:34;;;;;;;2.78;0.90;;;-0.10;99.90;;;-1.01;100.00;96449.09;5007235;28;20044;-38
2023/03/11 07:10:00;;;;;;;4.20;0.77;;;0.00;99.90;;;-1.01;100.00;96441.31;5009103;28;20022;-38
2023/03/11 07:12:25;;;;;;;6.63;1.00;;;0.10;99.90;;;-0.86;100.00;96444.66;5013391;28;20087;-38
2023/03/11 07:14:56;;;;;;;2.83;0.80;;;0.10;99.90;;;-0.76;100.00;96446.31;5007416;28;20405;-38
2023/03/11 07:17:22;;;;;;;4.25;0.75;;;0.20;99.90;;;-0.77;100.00;96450.66;5015303;28;20029;-38
2023/03/11 07:19:49;;;;;;;8.43;1.10;;;0.30;99.90;;;-0.79;100.00;96446.34;5011101;28;20062;-39
2023/03/11 07:22:14;;;;;;;5.10;0.90;;;0.30;99.90;;;-0.74;100.00;96449.75;5004377;28;20409;-39
2023/03/11 07:24:40;;;;;;;2.45;0.80;;;0.30;99.90;;;-0.68;100.00;96465.25;5008613;28;20037;-39
2023/03/11 07:27:06;;;;;;;5.30;1.25;;;0.30;99.90;;;-0.72;100.00;96465.28;5015708;28;20115;-38
2023/03/11 07:29:31;;;;;;;3.38;1.10;;;0.30;99.90;;;-0.75;100.00;96458.41;5012649;28;20553;-38
2023/03/11 07:31:57;;;;;;;2.83;0.80;;;0.30;99.90;;;-0.85;100.00;96449.00;5008309;28;20053;-39
2023/03/11 07:34:23;;;;;;;6.10;0.85;;;0.20;99.90;;;-0.91;100.00;96447.31;4998583;28;20087;-39
2023/03/11 07:36:48;;;;;;;5.07;0.70;;;0.20;99.90;;;-0.81;100.00;96472.25;5009613;28;20041;-39
2023/03/11 07:39:17;;;;;;;11.63;1.50;;;0.20;99.90;;;-0.77;100.00;96471.38;5010199;28;20634;-39
2023/03/11 07:41:44;;;;;;;2.72;0.88;;;0.30;99.90;;;-0.91;100.00;96452.47;5013703;28;20060;-40
2023/03/11 07:44:12;;;;;;;3.90;0.75;;;0.30;99.90;;;-0.70;100.00;96482.53;5046998;22;20060;-53
2023/03/11 07:46:38;;;;;;;2.70;1.10;;;0.30;99.90;;;-0.65;100.00;96477.31;5026997;28;20531;-50
2023/03/11 07:49:04;;;;;;;6.97;1.17;;;0.40;99.90;;;-0.55;100.00;96480.72;5032871;28;20040;-51
2023/03/11 07:51:33;;;;;;;5.82;1.30;;;0.40;99.90;;;-0.51;100.00;96484.97;5026510;28;20537;-52
2023/03/11 07:54:00;;;;;;;4.00;1.10;;;0.50;99.90;;;-0.47;100.00;96484.06;5017479;28;20498;-50
2023/03/11 07:56:29;;;;;;;4.10;1.02;;;0.50;99.90;;;-0.41;100.00;96484.91;5017133;28;20041;-52
2023/03/11 07:58:57;;;;;;;6.25;1.30;;;0.60;99.90;;;-0.33;100.00;96489.16;5015392;28;20516;-50
2023/03/11 08:01:26;;;;;;;10.70;1.17;;;0.60;99.90;;;-0.29;100.00;96491.69;5013613;28;20493;-48
2023/03/11 08:03:57;;;;;;;6.85;1.55;;;0.70;99.90;;;-0.25;100.00;96498.59;5009296;28;20033;-53
2023/03/11 08:06:30;;;;;;;2.50;1.10;;;0.80;99.90;;;-0.17;100.00;96490.72;5017916;28;20025;-51
2023/03/11 08:09:00;;;;;;;3.40;0.95;;;0.80;99.90;;;-0.16;100.00;96499.34;5011321;28;20052;-50
2023/03/11 08:11:26;;;;;;;4.85;0.90;;;0.90;99.90;;;-0.10;100.00;96491.53;5013754;28;20397;-52
2023/03/11 08:13:53;;;;;;;3.47;1.35;;;0.90;99.90;;;-0.06;100.00;96480.25;5014489;28;20022;-49
2023/03/11 08:16:21;;;;;;;3.60;1.23;;;1.00;99.90;;;-0.02;100.00;96493.19;5012126;28;20025;-48
2023/03/11 08:18:48;;;;;;;4.13;1.10;;;1.00;99.90;;;0.06;100.00;96510.41;5011706;28;20041;-49
2023/03/11 08:21:21;;;;;;;3.90;1.05;;;1.10;99.90;;;0.04;100.00;96507.81;5016745;28;20053;-51
2023/03/11 08:23:48;;;;;;;6.20;1.63;;;1.10;99.90;;;-0.01;100.00;96497.47;5013241;28;20048;-52
2023/03/11 08:26:20;;;;;;;5.22;0.98;;;1.10;99.90;;;0.08;100.00;96506.06;5016220;28;20029;-52
2023/03/11 08:28:48;;;;;;;8.05;1.10;;;1.10;99.90;;;0.10;95.56;96520.72;5013401;28;20053;-52
2023/03/11 08:31:24;;;;;;;4.32;1.00;;;1.10;99.90;;;0.24;96.24;96515.38;5007420;28;20030;-52
2023/03/11 08:33:52;;;;;;;3.63;1.30;;;1.20;99.90;;;0.43;100.00;96517.78;5009193;28;20521;-51
2023/03/11 08:36:19;;;;;;;4.18;1.13;;;1.40;99.90;;;0.51;100.00;96521.16;5011596;28;20033;-52
2023/03/11 08:38:45;;;;;;;3.58;0.90;;;1.40;99.90;;;0.52;97.55;96521.16;5008039;28;20754;-51
2023/03/11 08:41:11;;;;;;;6.35;0.98;;;1.50;99.90;;;0.60;98.99;96518.44;5006943;28;20037;-49
2023/03/11 08:43:38;;;;;;;3.33;1.20;;;1.60;99.90;;;0.83;97.50;96525.97;5005703;28;20033;-53
2023/03/11 08:46:05;;;;;;;4.97;1.17;;;1.70;99.90;;;0.90;91.46;96524.16;5012693;28;20034;-48
2023/03/11 08:48:31;;;;;;;6.70;1.17;;;1.80;99.90;;;1.02;91.17;96530.91;5012759;28;20026;-52
2023/03/11 08:50:58;;;;;;;5.60;1.05;;;2.00;99.90;;;1.30;87.07;96534.84;5010904;28;20125;-49
2023/03/11 08:53:24;;;;;;;3.85;1.05;;;2.10;99.90;;;1.28;89.34;96534.00;5011619;28;20025;-51
2023/03/11 08:55:51;;;;;;;3.15;1.08;;;2.20;99.90;;;1.28;89.49;96539.22;5013645;28;20033;-49
2023/03/11 08:58:17;;;;;;;5.45;1.30;;;2.30;99.90;;;1.33;89.11;96531.34;5013063;28;20045;-52
2023/03/11 09:00:43;;;;;;;2.53;0.98;;;2.30;99.90;;;1.55;86.04;96542.28;5010324;28;20052;-53
2023/03/11 09:03:09;;;;;;;5.93;1.10;;;2.40;99.90;;;1.63;84.51;96540.41;5007774;28;20489;-52
2023/03/11 09:05:35;;;;;;;6.82;1.33;;;2.50;99.90;;;1.68;86.47;96538.59;5002481;28;20029;-51
2023/03/11 09:08:02;;;;;;;4.60;1.52;;;2.60;99.90;;;1.61;80.77;96539.59;5008328;28;20072;-51
2023/03/11 09:10:28;;;;;;;11.95;1.40;;;2.60;99.90;;;1.68;86.98;96548.16;5009325;28;20421;-50
2023/03/11 09:12:54;;;;;;;3.30;1.30;;;2.60;99.90;;;1.70;79.72;96544.63;5006996;28;20163;-51
2023/03/11 09:15:20;;;;;;;2.88;0.98;;;2.70;99.90;;;1.63;80.62;96547.34;5012351;28;20072;-51
2023/03/11 09:17:45;;;;;;;4.05;1.20;;;2.60;99.90;;;1.66;80.21;96549.91;5014715;28;20120;-51
2023/03/11 09:20:13;;;;;;;3.83;1.08;;;2.60;99.90;;;1.71;80.93;96559.34;5014396;28;20045;-51
2023/03/11 09:22:38;;;;;;;5.95;1.27;;;2.70;99.90;;;1.79;78.77;96560.97;5007729;28;20037;-52
2023/03/11 09:25:06;;;;;;;4.20;0.88;;;2.80;99.90;;;1.90;81.00;96564.25;4993934;28;20053;-54
2023/03/11 09:27:32;;;;;;;3.45;1.08;;;2.90;99.90;;;1.90;79.92;96559.06;5004070;28;20028;-51
2023/03/11 09:29:58;;;;;;;5.03;1.13;;;2.90;99.90;;;2.11;80.95;96568.25;4994359;28;20033;-51
2023/03/11 09:32:23;;;;;;;3.67;1.17;;;3.00;99.90;;;2.16;75.92;96573.41;5003954;28;20029;-53
2023/03/11 09:34:49;;;;;;;6.28;1.20;;;3.10;99.90;;;2.22;76.70;96573.28;4989135;28;20393;-48
2023/03/11 09:37:15;;;;;;;7.53;1.30;;;3.20;99.90;;;2.13;73.21;96573.44;5002175;28;20040;-49
2023/03/11 09:39:40;;;;;;;5.50;1.23;;;3.20;99.90;;;2.17;77.90;96551.69;5006531;28;20497;-51
2023/03/11 09:42:21;;;;;;;5.00;1.05;;;3.20;99.90;;;2.40;74.60;96565.13;5007415;28;20502;-50
2023/03/11 09:44:58;;;;;;;5.68;0.90;;;3.30;99.90;;;2.51;73.52;96551.09;5007514;28;20044;-54
2023/03/11 09:47:56;;;;;;;3.88;1.20;;;3.40;99.90;;;2.84;68.21;96566.06;5009608;28;20088;-53
2023/03/11 09:50:29;;;;;;;5.20;1.23;;;3.60;99.90;;;2.82;69.86;96570.44;5012653;28;20076;-52
2023/03/11 09:53:10;;;;;;;1.80;0.90;;;3.80;99.90;;;2.95;67.88;96565.84;5007972;28;20041;-48
2023/03/11 09:55:48;;;;;;;5.75;1.10;;;3.90;99.90;;;3.10;72.20;96563.81;5013638;28;20444;-52
2023/03/11 09:58:44;;;;;;;5.68;1.15;;;4.00;99.90;;;3.10;67.63;96556.84;5012139;28;20048;-48
2023/03/11 10:01:35;;;;;;;6.35;1.00;;;4.00;99.90;;;2.78;67.13;96547.97;5007947;28;20112;-48
2023/03/11 10:04:12;;;;;;;2.60;0.90;;;3.90;99.90;;;2.56;69.00;96570.06;5028580;28;20037;-52
2023/03/11 10:06:40;;;;;;;3.10;1.05;;;3.70;99.90;;;2.29;68.36;96570.53;5012378;28;20037;-52
2023/03/11 10:09:28;;;;;;;4.47;1.02;;;3.40;99.90;;;2.35;69.99;96573.91;5009095;28;20079;-55
2023/03/11 10:11:59;;;;;;;3.35;0.80;;;3.30;99.90;;;2.44;70.19;96564.22;5008341;28;20028;-51
2023/03/11 10:14:42;;;;;;;3.73;0.93;;;3.30;99.90;;;2.33;67.09;96550.53;5016366;28;20427;-50
2023/03/11 10:17:27;;;;;;;3.00;0.90;;;3.30;99.90;;;2.50;72.40;96570.22;5012662;28;20269;-51
2023/03/11 10:20:21;;;;;;;4.47;0.80;;;3.40;99.90;;;2.69;66.24;96566.34;5017350;28;20045;-51
2023/03/11 10:23:11;;;;;;;2.95;0.73;;;3.60;99.90;;;2.86;65.31;96550.41;5011800;28;20026;-52
2023/03/11 10:25:41;;;;;;;3.97;0.90;;;3.80;99.90;;;3.02;64.59;96571.78;5013587;28;20029;-52